Time;durP1;ratioP1;P1;durP2;ratioP2;P2;SDS_P1;SDS_P2;PMS_P1;PMS_P2;Temp;Humidity;BMP_temperature;BMP_pressure;BME280_temperature;BME280_humidity;BME280_pressure;Samples;Min_cycle;Max_cycle;Signal;HPM_P1;HPM_P2
2023/10/04 00:00:59;;;;;;;6.18;2.40;;;26.80;96.20;;;;;;5029822;28;20554;-81
2023/10/04 00:03:30;;;;;;;6.18;2.60;;;27.00;95.10;;;;;;5030891;28;20283;-82
2023/10/04 00:06:01;;;;;;;6.00;2.10;;;27.10;94.40;;;;;;5034560;28;20197;-83
2023/10/04 00:08:32;;;;;;;5.25;2.22;;;27.20;94.30;;;;;;5043526;28;20252;-83
2023/10/04 00:11:03;;;;;;;6.05;2.50;;;27.30;93.90;;;;;;5032393;28;20204;-83
2023/10/04 00:13:40;;;;;;;5.53;2.53;;;27.30;93.00;;;;;;5031457;28;20773;-83
2023/10/04 00:16:12;;;;;;;10.85;2.50;;;27.30;92.70;;;;;;5031824;28;20288;-84
2023/10/04 00:18:43;;;;;;;8.68;2.35;;;27.40;91.80;;;;;;5030637;28;20200;-84
2023/10/04 00:21:15;;;;;;;5.45;2.38;;;27.50;91.50;;;;;;5034076;28;20194;-83
2023/10/04 00:23:46;;;;;;;5.82;2.25;;;27.70;91.40;;;;;;5029195;28;20196;-83
2023/10/04 00:26:18;;;;;;;6.10;2.40;;;27.80;91.50;;;;;;5041720;28;20200;-82
2023/10/04 00:28:51;;;;;;;4.03;2.20;;;27.90;91.40;;;;;;5032145;28;20201;-82
2023/10/04 00:31:22;;;;;;;4.80;2.10;;;28.00;91.00;;;;;;5031542;28;20194;-82
2023/10/04 00:33:52;;;;;;;7.97;2.53;;;28.20;90.60;;;;;;5032126;28;20304;-82
2023/10/04 00:36:24;;;;;;;7.95;2.40;;;28.40;89.90;;;;;;5030596;28;20220;-83
2023/10/04 00:38:55;;;;;;;5.47;2.20;;;28.30;89.10;;;;;;5024400;28;20201;-82
2023/10/04 00:41:30;;;;;;;4.90;2.05;;;28.40;89.30;;;;;;5030104;28;20659;-83
2023/10/04 00:44:04;;;;;;;6.35;2.10;;;28.40;87.80;;;;;;5025181;28;20220;-82
2023/10/04 00:46:40;;;;;;;6.05;1.90;;;28.40;88.10;;;;;;5020466;28;20197;-83
2023/10/04 00:49:11;;;;;;;7.22;2.20;;;28.30;88.40;;;;;;5011907;28;20209;-83
2023/10/04 00:51:42;;;;;;;5.65;2.25;;;28.30;89.10;;;;;;5012018;28;20575;-82
2023/10/04 00:54:15;;;;;;;7.22;2.55;;;28.30;88.00;;;;;;5026493;28;20200;-83
2023/10/04 00:56:47;;;;;;;9.82;2.47;;;28.40;87.40;;;;;;5029921;28;20284;-83
2023/10/04 00:59:21;;;;;;;7.82;2.08;;;28.70;87.50;;;;;;5045536;28;20679;-82
2023/10/04 01:01:52;;;;;;;6.30;2.45;;;28.90;85.80;;;;;;5030725;28;20229;-83
2023/10/04 01:04:25;;;;;;;10.77;2.55;;;28.80;85.20;;;;;;5031378;28;20205;-81
2023/10/04 01:06:56;;;;;;;7.85;2.33;;;28.80;84.60;;;;;;5031685;28;20292;-83
2023/10/04 01:09:27;;;;;;;7.32;2.30;;;28.60;84.50;;;;;;5038194;28;20246;-83
2023/10/04 01:11:58;;;;;;;5.80;2.30;;;28.60;84.40;;;;;;5028774;28;20197;-83
2023/10/04 01:14:37;;;;;;;7.43;2.40;;;28.50;84.10;;;;;;5029947;28;20221;-84
2023/10/04 01:17:12;;;;;;;6.60;2.72;;;28.30;85.10;;;;;;5022992;28;20280;-83
2023/10/04 01:19:44;;;;;;;6.18;2.53;;;28.30;85.30;;;;;;5024525;28;20236;-82
2023/10/04 01:22:16;;;;;;;8.77;2.50;;;28.20;85.90;;;;;;5021220;28;20229;-84
2023/10/04 01:24:47;;;;;;;5.90;2.25;;;28.20;86.70;;;;;;5014673;28;20609;-83
2023/10/04 01:27:19;;;;;;;7.63;2.33;;;28.20;86.40;;;;;;5028756;28;20197;-83
2023/10/04 01:29:50;;;;;;;6.00;2.50;;;28.40;85.10;;;;;;5029832;28;20201;-82
2023/10/04 01:32:22;;;;;;;9.55;2.50;;;28.40;86.00;;;;;;5027674;28;20213;-83
2023/10/04 01:34:53;;;;;;;6.68;2.60;;;28.40;83.20;;;;;;5024475;28;20664;-82
2023/10/04 01:37:29;;;;;;;7.20;2.55;;;28.50;83.80;;;;;;5015283;28;20198;-84
2023/10/04 01:40:01;;;;;;;6.50;2.45;;;28.50;83.40;;;;;;5022354;28;20192;-82
2023/10/04 01:42:32;;;;;;;8.30;2.50;;;28.80;82.80;;;;;;5021089;28;20720;-82
2023/10/04 01:45:03;;;;;;;4.60;2.33;;;29.00;81.90;;;;;;5021901;28;20247;-83
2023/10/04 01:47:34;;;;;;;5.28;2.15;;;29.20;81.40;;;;;;5030446;28;20205;-83
2023/10/04 01:50:05;;;;;;;6.57;2.42;;;29.20;79.70;;;;;;5024420;28;20668;-81
2023/10/04 01:52:38;;;;;;;8.82;3.00;;;29.10;79.80;;;;;;5015281;28;20204;-83
2023/10/04 01:55:10;;;;;;;11.13;2.85;;;29.10;79.00;;;;;;5028213;28;20208;-82
2023/10/04 01:57:43;;;;;;;5.88;2.20;;;29.30;79.30;;;;;;5032927;28;20190;-84
2023/10/04 02:00:19;;;;;;;8.23;2.47;;;29.20;77.20;;;;;;5026208;28;20284;-83
2023/10/04 02:02:51;;;;;;;5.40;2.53;;;28.90;77.70;;;;;;5028386;28;20231;-83
2023/10/04 02:05:28;;;;;;;6.05;2.55;;;28.60;78.30;;;;;;5021021;28;20293;-83
2023/10/04 02:08:01;;;;;;;5.03;2.50;;;28.30;80.10;;;;;;5049333;28;20251;-82
2023/10/04 02:10:32;;;;;;;9.15;2.28;;;28.20;80.80;;;;;;5048025;28;20232;-82
2023/10/04 02:13:03;;;;;;;7.40;2.47;;;28.10;81.00;;;;;;5030119;28;20731;-83
2023/10/04 02:15:39;;;;;;;9.20;2.65;;;28.00;81.90;;;;;;5029960;28;20247;-83
2023/10/04 02:18:10;;;;;;;7.15;2.65;;;28.00;82.50;;;;;;5022455;28;20202;-84
2023/10/04 02:20:46;;;;;;;8.00;2.55;;;28.10;83.60;;;;;;5013826;28;20618;-83
2023/10/04 02:23:21;;;;;;;5.15;2.25;;;28.30;83.00;;;;;;5031478;28;20693;-83
2023/10/04 02:25:51;;;;;;;7.90;2.55;;;28.30;82.50;;;;;;5034652;28;20205;-83
2023/10/04 02:28:23;;;;;;;11.68;2.80;;;28.30;81.70;;;;;;5034259;28;20197;-84
2023/10/04 02:30:56;;;;;;;8.75;3.10;;;28.30;81.00;;;;;;5034196;28;20259;-84
2023/10/04 02:33:32;;;;;;;6.15;2.83;;;28.50;82.20;;;;;;5017900;28;20213;-83
2023/10/04 02:36:04;;;;;;;8.55;2.40;;;28.60;81.70;;;;;;5024572;28;20209;-83
2023/10/04 02:38:37;;;;;;;10.23;2.72;;;28.50;80.10;;;;;;5017864;28;20252;-83
2023/10/04 02:41:10;;;;;;;8.48;2.63;;;28.40;79.60;;;;;;5046417;28;20216;-84
2023/10/04 02:43:40;;;;;;;6.05;2.15;;;28.20;79.70;;;;;;5053573;28;20262;-84
2023/10/04 02:46:12;;;;;;;5.10;2.53;;;28.00;80.90;;;;;;5039465;28;20656;-84
2023/10/04 02:52:06;;;;;;;6.82;2.58;;;27.90;81.80;;;;;;5026000;28;20278;-83
2023/10/04 02:57:29;;;;;;;5.80;2.40;;;27.80;81.40;;;;;;5034157;28;20209;-83
2023/10/04 03:00:00;;;;;;;5.20;2.17;;;27.80;81.30;;;;;;5028222;28;20213;-84
2023/10/04 03:05:35;;;;;;;5.85;2.30;;;27.60;82.50;;;;;;5032600;28;20323;-83
2023/10/04 03:08:08;;;;;;;6.55;2.38;;;27.70;82.60;;;;;;5030617;28;20194;-83
2023/10/04 03:10:42;;;;;;;8.48;2.83;;;27.60;81.70;;;;;;5035481;28;20745;-83
2023/10/04 03:13:19;;;;;;;4.70;2.40;;;27.60;82.40;;;;;;5022156;28;20282;-83
2023/10/04 03:15:50;;;;;;;6.63;2.20;;;27.70;82.90;;;;;;5032130;28;20201;-82
2023/10/04 03:24:47;;;;;;;6.20;1.92;;;27.80;82.80;;;;;;5029127;28;20659;-83
2023/10/04 03:27:24;;;;;;;4.85;2.00;;;27.90;82.60;;;;;;5030311;28;20668;-83
2023/10/04 03:33:18;;;;;;;5.28;2.13;;;28.20;81.50;;;;;;5051169;28;20219;-85
2023/10/04 03:39:12;;;;;;;4.75;2.20;;;28.10;81.40;;;;;;5025128;28;20201;-84
2023/10/04 03:41:46;;;;;;;5.35;1.90;;;28.00;80.50;;;;;;5025776;28;20227;-82
2023/10/04 03:47:08;;;;;;;10.52;2.42;;;27.80;79.60;;;;;;5021225;28;20216;-83
2023/10/04 03:49:39;;;;;;;7.63;2.05;;;27.60;80.40;;;;;;5033350;28;20204;-84
2023/10/04 03:52:10;;;;;;;5.80;1.88;;;27.50;80.40;;;;;;5012000;28;20237;-83
2023/10/04 03:54:44;;;;;;;7.15;2.40;;;27.40;80.90;;;;;;5029169;28;20276;-84
2023/10/04 03:57:15;;;;;;;6.93;2.05;;;27.40;81.50;;;;;;5030232;28;20201;-84
2023/10/04 03:59:47;;;;;;;7.05;2.10;;;27.40;81.60;;;;;;5032590;28;20456;-84
2023/10/04 04:02:19;;;;;;;6.70;2.10;;;27.40;81.90;;;;;;5031661;28;20205;-84
2023/10/04 04:04:50;;;;;;;5.85;2.30;;;27.40;81.80;;;;;;5036046;28;20204;-84
2023/10/04 04:07:21;;;;;;;7.35;2.13;;;27.30;81.50;;;;;;5034403;28;20197;-84
2023/10/04 04:09:52;;;;;;;6.95;2.15;;;27.30;82.10;;;;;;5032042;28;20276;-84
2023/10/04 04:12:23;;;;;;;6.55;2.03;;;27.30;82.80;;;;;;5041923;28;20562;-82
2023/10/04 04:14:56;;;;;;;6.07;2.13;;;27.40;82.40;;;;;;5023267;28;20195;-82
2023/10/04 04:17:29;;;;;;;3.70;1.80;;;27.40;81.10;;;;;;5031306;28;20807;-83
2023/10/04 04:19:59;;;;;;;5.65;2.17;;;27.30;80.90;;;;;;5028441;28;20780;-84
2023/10/04 04:22:32;;;;;;;4.68;1.77;;;27.40;81.30;;;;;;5025041;28;20229;-82
2023/10/04 04:25:03;;;;;;;5.13;1.73;;;27.40;81.60;;;;;;5025258;28;20296;-84
2023/10/04 04:27:34;;;;;;;8.68;2.03;;;27.40;81.20;;;;;;5033106;28;20194;-83
2023/10/04 04:30:09;;;;;;;4.90;2.28;;;27.30;81.10;;;;;;5021582;28;20194;-82
2023/10/04 04:32:40;;;;;;;5.47;2.10;;;27.20;81.40;;;;;;5029081;28;20213;-83
2023/10/04 04:35:15;;;;;;;5.75;2.00;;;27.20;81.30;;;;;;5013669;28;20202;-82
2023/10/04 04:37:46;;;;;;;7.82;1.90;;;27.10;81.10;;;;;;5027829;28;20237;-83
2023/10/04 04:40:23;;;;;;;6.20;1.98;;;27.00;81.90;;;;;;5026541;28;20194;-83
2023/10/04 04:43:01;;;;;;;6.95;2.17;;;27.00;82.10;;;;;;5029745;28;20224;-84
2023/10/04 04:45:35;;;;;;;3.85;2.17;;;27.00;82.00;;;;;;5032353;28;20538;-83
2023/10/04 04:48:06;;;;;;;7.97;2.00;;;27.00;81.90;;;;;;5031849;28;20265;-82
2023/10/04 04:50:37;;;;;;;7.50;2.10;;;26.90;82.40;;;;;;5030388;28;20280;-83
2023/10/04 04:53:27;;;;;;;7.20;1.90;;;26.90;82.60;;;;;;5027810;28;20202;-83
2023/10/04 04:55:58;;;;;;;4.75;1.85;;;26.80;83.20;;;;;;5027799;28;20406;-82
2023/10/04 04:58:30;;;;;;;6.32;1.85;;;26.80;83.10;;;;;;5031485;28;20694;-84
2023/10/04 05:01:08;;;;;;;5.30;1.83;;;26.70;83.10;;;;;;5019281;28;20194;-83
2023/10/04 05:03:41;;;;;;;4.20;1.77;;;26.70;84.00;;;;;;5030793;28;20316;-83
2023/10/04 05:06:16;;;;;;;5.95;1.80;;;26.60;84.40;;;;;;5024435;28;20198;-82
2023/10/04 05:08:46;;;;;;;5.53;2.05;;;26.60;84.70;;;;;;5031372;28;20205;-82
2023/10/04 05:11:17;;;;;;;6.03;1.83;;;26.60;85.50;;;;;;5025866;28;20201;-82
2023/10/04 05:13:48;;;;;;;7.22;2.85;;;26.60;87.40;;;;;;5030652;28;20266;-83
2023/10/04 05:16:21;;;;;;;15.65;4.82;;;26.60;95.30;;;;;;5033519;28;20271;-83
2023/10/04 05:18:53;;;;;;;18.13;5.30;;;26.40;99.90;;;;;;5027312;28;20303;-83
2023/10/04 05:21:24;;;;;;;19.73;5.85;;;26.00;99.90;;;;;;5026778;28;20228;-83
2023/10/04 05:23:56;;;;;;;16.92;5.55;;;25.60;99.90;;;;;;5031323;28;20217;-83
2023/10/04 05:26:27;;;;;;;19.42;5.30;;;25.30;99.90;;;;;;5024073;28;20239;-84
2023/10/04 05:29:00;;;;;;;16.05;4.95;;;25.00;99.90;;;;;;5020109;28;20285;-84
2023/10/04 05:31:32;;;;;;;16.48;5.05;;;24.80;99.90;;;;;;5034888;28;20197;-84
2023/10/04 05:34:03;;;;;;;16.80;4.70;;;24.50;99.90;;;;;;5031703;28;20228;-83
2023/10/04 05:36:34;;;;;;;21.38;5.00;;;24.40;99.90;;;;;;5025870;28;20190;-84
2023/10/04 05:39:07;;;;;;;21.33;5.00;;;24.30;99.90;;;;;;5020576;28;20284;-84
2023/10/04 05:41:38;;;;;;;24.83;5.22;;;24.20;99.90;;;;;;5018865;28;20272;-84
2023/10/04 05:44:10;;;;;;;20.60;5.65;;;24.10;99.90;;;;;;5031183;28;20228;-84
2023/10/04 05:46:45;;;;;;;20.20;4.88;;;24.00;99.90;;;;;;5025502;28;20198;-83
2023/10/04 05:49:16;;;;;;;20.02;5.57;;;23.80;99.90;;;;;;5033782;28;20231;-83
2023/10/04 05:51:47;;;;;;;22.73;5.38;;;23.70;99.90;;;;;;5033057;28;20533;-84
2023/10/04 05:54:18;;;;;;;23.80;4.68;;;23.60;99.90;;;;;;5031277;28;20205;-83
2023/10/04 05:56:50;;;;;;;16.95;4.57;;;23.60;99.90;;;;;;5031964;28;20220;-84
2023/10/04 05:59:20;;;;;;;16.90;4.10;;;23.50;99.90;;;;;;5032219;28;20678;-83
2023/10/04 06:01:53;;;;;;;24.02;4.60;;;23.40;99.90;;;;;;5035276;28;20680;-84
2023/10/04 06:04:24;;;;;;;26.63;5.00;;;23.40;99.90;;;;;;5034619;28;20235;-85
2023/10/04 06:06:55;;;;;;;17.00;4.55;;;23.40;99.90;;;;;;5023187;28;20248;-84
2023/10/04 06:09:29;;;;;;;20.73;4.40;;;23.40;99.90;;;;;;5018704;28;20202;-83
2023/10/04 06:12:01;;;;;;;18.90;4.45;;;23.40;99.90;;;;;;5033244;28;20202;-83
2023/10/04 06:14:32;;;;;;;17.65;5.00;;;23.30;99.90;;;;;;5044795;28;20236;-85
2023/10/04 06:17:06;;;;;;;23.85;4.43;;;23.30;99.90;;;;;;5024373;28;20205;-82
2023/10/04 06:19:36;;;;;;;17.20;4.45;;;23.30;99.90;;;;;;5034199;28;20202;-83
2023/10/04 06:22:07;;;;;;;19.88;4.50;;;23.30;99.90;;;;;;5026685;28;20200;-84
2023/10/04 06:24:39;;;;;;;19.75;4.28;;;23.20;99.90;;;;;;5032974;28;20234;-84
2023/10/04 06:27:09;;;;;;;20.95;4.47;;;23.30;99.90;;;;;;5034374;28;20506;-83
2023/10/04 06:29:44;;;;;;;18.13;4.40;;;23.20;99.90;;;;;;5033691;28;20197;-83
2023/10/04 06:32:18;;;;;;;25.05;5.20;;;23.20;99.90;;;;;;5033214;28;20193;-85
2023/10/04 06:34:49;;;;;;;23.77;5.25;;;23.10;99.90;;;;;;5034338;28;20197;-84
2023/10/04 06:37:20;;;;;;;25.13;5.28;;;23.10;99.90;;;;;;5036341;28;20209;-83
2023/10/04 06:39:50;;;;;;;23.77;5.07;;;23.20;99.90;;;;;;5033801;28;20220;-84
2023/10/04 06:42:21;;;;;;;18.75;4.78;;;23.20;99.90;;;;;;5034010;28;20268;-83
2023/10/04 06:44:52;;;;;;;22.48;5.22;;;23.10;99.90;;;;;;5033954;28;20229;-84
2023/10/04 06:47:25;;;;;;;21.95;5.00;;;23.00;99.90;;;;;;5034401;28;20658;-84
2023/10/04 06:49:58;;;;;;;26.08;5.25;;;23.00;99.90;;;;;;5034272;28;20672;-83
2023/10/04 06:52:29;;;;;;;26.70;5.43;;;23.00;99.90;;;;;;5033981;28;20284;-84
2023/10/04 06:55:00;;;;;;;26.13;5.28;;;23.00;99.90;;;;;;5032542;28;20203;-85
2023/10/04 06:57:30;;;;;;;30.92;6.25;;;23.00;99.90;;;;;;5020089;28;20209;-84
2023/10/04 07:00:12;;;;;;;20.83;5.40;;;23.00;99.90;;;;;;5016163;28;20665;-83
2023/10/04 07:02:46;;;;;;;27.67;5.75;;;23.00;99.90;;;;;;5014148;28;20190;-84
2023/10/04 07:05:19;;;;;;;29.08;6.30;;;23.10;99.90;;;;;;5017042;28;20257;-82
2023/10/04 07:07:51;;;;;;;30.63;6.63;;;23.10;99.90;;;;;;5012889;28;20255;-84
2023/10/04 07:10:23;;;;;;;27.38;5.95;;;23.00;99.90;;;;;;5030200;28;20244;-83
2023/10/04 07:12:54;;;;;;;31.05;5.70;;;23.00;99.90;;;;;;5038258;28;20205;-83
2023/10/04 07:15:27;;;;;;;31.33;6.35;;;23.00;99.90;;;;;;5042927;28;20225;-84
2023/10/04 07:18:00;;;;;;;22.08;5.07;;;23.00;99.90;;;;;;5030488;28;20189;-83
2023/10/04 07:20:31;;;;;;;28.58;5.95;;;23.00;99.90;;;;;;5013755;28;20205;-83
2023/10/04 07:23:03;;;;;;;23.13;5.70;;;23.00;99.90;;;;;;5021710;28;20189;-84
2023/10/04 07:25:34;;;;;;;24.92;5.05;;;23.00;99.90;;;;;;5033595;28;20312;-84
2023/10/04 07:28:08;;;;;;;20.75;5.30;;;23.00;99.90;;;;;;5032673;28;20204;-84
2023/10/04 07:30:40;;;;;;;24.35;4.95;;;23.10;99.90;;;;;;5034037;28;20197;-84
2023/10/04 07:33:13;;;;;;;25.33;5.85;;;23.10;99.90;;;;;;5030699;28;20591;-84
2023/10/04 07:35:43;;;;;;;16.95;4.20;;;23.10;99.90;;;;;;5032754;28;20200;-83
2023/10/04 07:38:14;;;;;;;20.88;4.75;;;23.10;99.90;;;;;;5032819;28;20194;-84
2023/10/04 07:40:45;;;;;;;20.92;4.45;;;23.10;99.90;;;;;;5034730;28;20259;-84
2023/10/04 07:43:16;;;;;;;19.77;4.65;;;23.10;99.90;;;;;;5034058;28;20197;-85
2023/10/04 07:45:47;;;;;;;20.70;4.93;;;23.10;99.90;;;;;;5033208;28;20213;-83
2023/10/04 07:48:19;;;;;;;20.10;4.65;;;23.10;99.90;;;;;;5032101;28;20205;-83
2023/10/04 07:50:53;;;;;;;21.77;4.95;;;23.10;99.90;;;;;;5025905;28;20205;-83
2023/10/04 07:53:25;;;;;;;20.13;4.57;;;23.00;99.90;;;;;;5023011;28;20554;-83
2023/10/04 07:55:55;;;;;;;18.38;4.22;;;23.00;99.90;;;;;;5024438;28;20193;-83
2023/10/04 07:58:26;;;;;;;15.27;3.95;;;22.80;99.90;;;;;;5019522;28;20200;-83
2023/10/04 08:01:03;;;;;;;16.08;4.03;;;22.60;99.90;;;;;;5034901;28;20193;-83
2023/10/04 08:03:36;;;;;;;11.65;4.03;;;22.50;99.90;;;;;;5041204;28;20201;-84
2023/10/04 08:06:12;;;;;;;11.23;4.40;;;22.40;99.90;;;;;;5028625;28;20197;-85
2023/10/04 08:08:45;;;;;;;9.32;3.97;;;22.20;99.90;;;;;;5020654;28;20247;-83
2023/10/04 08:11:15;;;;;;;11.60;3.88;;;22.00;99.90;;;;;;5030597;28;20659;-83
2023/10/04 08:13:46;;;;;;;17.35;4.45;;;22.00;99.90;;;;;;5031960;28;20233;-83
2023/10/04 08:16:17;;;;;;;9.70;3.25;;;21.90;99.90;;;;;;5039530;28;20201;-83
2023/10/04 08:18:50;;;;;;;7.10;3.08;;;21.80;99.90;;;;;;5027492;28;20208;-83
2023/10/04 08:21:22;;;;;;;10.70;3.05;;;21.70;99.90;;;;;;5019330;28;20205;-84
2023/10/04 08:23:53;;;;;;;9.75;3.03;;;21.60;99.90;;;;;;5018028;28;20217;-83
2023/10/04 08:26:25;;;;;;;12.35;3.10;;;21.50;99.90;;;;;;5024653;28;20189;-84
2023/10/04 08:28:56;;;;;;;9.73;3.20;;;21.40;99.90;;;;;;5030673;28;20259;-82
2023/10/04 08:31:26;;;;;;;8.20;2.75;;;21.40;99.90;;;;;;5024989;28;20263;-83
2023/10/04 08:33:59;;;;;;;11.60;3.50;;;21.40;99.90;;;;;;5025713;28;20292;-84
2023/10/04 08:36:30;;;;;;;6.93;2.50;;;21.20;99.90;;;;;;5022693;28;20205;-84
2023/10/04 08:39:10;;;;;;;10.13;2.92;;;21.20;99.90;;;;;;5037173;28;20201;-83
2023/10/04 08:41:41;;;;;;;5.07;2.17;;;21.10;99.90;;;;;;5020300;28;20195;-84
2023/10/04 08:44:12;;;;;;;7.40;2.75;;;21.10;99.90;;;;;;5031649;28;20228;-83
2023/10/04 08:46:52;;;;;;;7.88;2.47;;;21.00;99.90;;;;;;5016741;28;20205;-83
2023/10/04 08:49:30;;;;;;;9.85;2.95;;;21.00;99.90;;;;;;5011577;28;20243;-84
2023/10/04 08:52:09;;;;;;;4.97;2.35;;;20.90;99.90;;;;;;5011710;28;20286;-83
2023/10/04 08:54:42;;;;;;;5.32;2.10;;;21.00;99.90;;;;;;5021985;28;20339;-84
2023/10/04 08:57:20;;;;;;;6.75;2.50;;;20.90;99.90;;;;;;5027491;28;20201;-83
2023/10/04 08:59:51;;;;;;;3.83;1.70;;;20.90;99.90;;;;;;5024726;28;20243;-83
2023/10/04 09:02:25;;;;;;;2.95;1.50;;;20.80;99.90;;;;;;5031101;28;20200;-82
2023/10/04 09:04:58;;;;;;;4.45;1.67;;;20.60;99.90;;;;;;5022398;28;20225;-83
2023/10/04 09:07:30;;;;;;;4.97;1.80;;;20.40;99.90;;;;;;5037567;28;20190;-83
2023/10/04 09:10:04;;;;;;;3.90;1.70;;;20.30;99.90;;;;;;5032301;28;20189;-83
2023/10/04 09:12:36;;;;;;;3.10;1.40;;;20.10;99.90;;;;;;5033064;28;20534;-83
2023/10/04 09:15:07;;;;;;;1.77;0.70;;;20.00;99.90;;;;;;5038369;28;20173;-83
2023/10/04 09:17:55;;;;;;;1.27;0.73;;;19.90;99.90;;;;;;5041400;28;20193;-83
2023/10/04 09:20:30;;;;;;;0.68;0.50;;;19.80;99.90;;;;;;5024867;28;20198;-82
2023/10/04 09:23:01;;;;;;;0.30;0.30;;;19.50;99.90;;;;;;5033111;28;20279;-82
2023/10/04 09:25:42;;;;;;;1.42;0.40;;;19.50;99.90;;;;;;5034230;28;20662;-84
2023/10/04 09:28:12;;;;;;;3.75;0.52;;;19.50;99.90;;;;;;5024172;28;20203;-82
2023/10/04 09:30:44;;;;;;;1.25;0.93;;;19.30;99.90;;;;;;5028137;28;20280;-83
2023/10/04 09:33:28;;;;;;;0.47;0.30;;;19.20;99.90;;;;;;5038787;28;20213;-82
2023/10/04 09:36:01;;;;;;;0.47;0.30;;;19.20;99.90;;;;;;5033420;28;20247;-83
2023/10/04 09:38:35;;;;;;;0.45;0.22;;;19.10;99.90;;;;;;5029008;28;20197;-84
2023/10/04 09:41:06;;;;;;;1.17;0.45;;;19.00;99.90;;;;;;5021145;28;20193;-83
2023/10/04 09:43:37;;;;;;;1.20;0.50;;;19.10;99.90;;;;;;5031644;28;20293;-82
2023/10/04 09:46:09;;;;;;;1.90;0.60;;;19.00;99.90;;;;;;5045091;28;20224;-82
2023/10/04 09:48:43;;;;;;;5.07;1.08;;;18.90;99.90;;;;;;5052756;28;20192;-84
2023/10/04 09:51:16;;;;;;;3.88;0.98;;;18.80;99.90;;;;;;5052544;28;20204;-83
2023/10/04 09:53:47;;;;;;;3.35;0.60;;;18.60;99.90;;;;;;5036532;28;20194;-82
2023/10/04 09:56:19;;;;;;;1.17;0.70;;;18.60;99.90;;;;;;5031131;28;20551;-81
2023/10/04 09:58:51;;;;;;;1.75;0.55;;;18.40;99.90;;;;;;5023123;28;20200;-83
2023/10/04 10:01:23;;;;;;;1.02;0.50;;;18.50;99.90;;;;;;5025870;28;20205;-83
2023/10/04 10:04:02;;;;;;;0.40;0.40;;;18.50;99.90;;;;;;5027788;28;20201;-81
2023/10/04 10:06:52;;;;;;;2.40;0.40;;;18.30;99.90;;;;;;5023224;28;20193;-83
2023/10/04 10:09:25;;;;;;;3.00;0.50;;;18.20;99.90;;;;;;5031366;28;20194;-82
2023/10/04 10:11:57;;;;;;;1.38;0.40;;;18.00;99.90;;;;;;5033597;28;20226;-82
2023/10/04 10:14:31;;;;;;;1.38;0.50;;;17.90;99.90;;;;;;5033851;28;20605;-84
2023/10/04 10:17:02;;;;;;;2.90;0.70;;;17.90;99.90;;;;;;5048585;28;20193;-83
2023/10/04 10:19:33;;;;;;;1.80;0.32;;;18.00;99.90;;;;;;5029590;28;20217;-84
2023/10/04 10:22:11;;;;;;;0.60;0.28;;;17.90;99.90;;;;;;5012371;28;20577;-85
2023/10/04 10:24:51;;;;;;;0.77;0.30;;;17.80;99.90;;;;;;5028621;28;20221;-83
2023/10/04 10:27:24;;;;;;;0.50;0.40;;;17.80;99.90;;;;;;5024550;28;20205;-83
2023/10/04 10:29:57;;;;;;;0.20;0.20;;;17.80;99.90;;;;;;5031329;28;20192;-84
2023/10/04 10:32:28;;;;;;;3.03;0.30;;;17.60;99.90;;;;;;5023195;28;20318;-82
2023/10/04 10:35:04;;;;;;;0.50;0.35;;;17.40;99.90;;;;;;5031466;28;20288;-81
2023/10/04 10:37:38;;;;;;;0.80;0.20;;;17.40;99.90;;;;;;5037119;28;20546;-82
2023/10/04 10:40:31;;;;;;;0.30;0.25;;;17.30;99.90;;;;;;5031982;28;20247;-83
2023/10/04 10:43:14;;;;;;;2.45;0.40;;;17.20;99.90;;;;;;5030364;28;20205;-83
2023/10/04 10:45:50;;;;;;;3.97;0.30;;;17.10;99.90;;;;;;5019330;28;20227;-84
2023/10/04 10:48:33;;;;;;;1.75;0.32;;;17.00;99.90;;;;;;5032387;28;20243;-83
2023/10/04 10:51:05;;;;;;;1.80;0.43;;;16.90;99.90;;;;;;5021143;28;20228;-84
2023/10/04 10:53:37;;;;;;;0.38;0.25;;;16.90;99.90;;;;;;5032629;28;20200;-83
2023/10/04 10:56:09;;;;;;;0.55;0.10;;;16.90;99.90;;;;;;5028852;28;20756;-85
2023/10/04 10:58:40;;;;;;;0.60;0.20;;;16.80;99.90;;;;;;5033867;28;20244;-84
2023/10/04 11:01:11;;;;;;;1.80;0.30;;;16.70;99.90;;;;;;5013990;28;20201;-83
2023/10/04 11:03:44;;;;;;;0.60;0.20;;;16.70;99.90;;;;;;5013788;28;20247;-83
2023/10/04 11:06:16;;;;;;;1.50;0.47;;;16.70;99.90;;;;;;5028838;28;20229;-83
2023/10/04 11:08:50;;;;;;;1.05;0.52;;;16.60;99.90;;;;;;5032275;28;20224;-83
2023/10/04 11:11:22;;;;;;;1.33;0.45;;;16.70;99.90;;;;;;5023467;28;20208;-82
2023/10/04 11:13:53;;;;;;;1.13;0.20;;;16.60;99.90;;;;;;5027309;28;20233;-83
2023/10/04 11:16:23;;;;;;;0.65;0.30;;;16.50;99.90;;;;;;5043495;28;20734;-82
2023/10/04 11:18:54;;;;;;;2.58;0.70;;;16.50;99.90;;;;;;5046753;28;20189;-82
2023/10/04 11:21:27;;;;;;;1.77;0.60;;;16.70;99.90;;;;;;5033387;28;20225;-83
2023/10/04 11:24:03;;;;;;;0.63;0.30;;;16.70;99.90;;;;;;5044013;28;20186;-84
2023/10/04 11:26:34;;;;;;;2.00;0.38;;;16.90;99.90;;;;;;5042606;28;20231;-84
2023/10/04 11:29:05;;;;;;;3.85;0.82;;;16.80;99.90;;;;;;5032040;28;20232;-83
2023/10/04 11:31:37;;;;;;;2.17;0.57;;;16.80;99.90;;;;;;5035724;28;20190;-82
2023/10/04 11:34:08;;;;;;;2.20;0.47;;;17.00;99.90;;;;;;5026684;28;20579;-82
2023/10/04 11:36:40;;;;;;;2.17;0.50;;;17.00;99.90;;;;;;5042308;28;20197;-84
2023/10/04 11:39:18;;;;;;;4.50;0.40;;;17.00;99.90;;;;;;5042577;28;20201;-82
2023/10/04 11:41:53;;;;;;;1.10;0.30;;;17.00;99.90;;;;;;5042085;28;20217;-84
2023/10/04 11:44:24;;;;;;;0.40;0.20;;;17.00;99.90;;;;;;5038028;28;20209;-83
2023/10/04 11:47:03;;;;;;;0.85;0.38;;;16.90;99.90;;;;;;5042045;28;20224;-82
2023/10/04 11:49:36;;;;;;;0.60;0.20;;;16.90;99.90;;;;;;5045798;28;20197;-82
2023/10/04 11:52:09;;;;;;;1.23;0.40;;;16.80;99.90;;;;;;5041707;28;20209;-83
2023/10/04 11:54:44;;;;;;;0.73;0.45;;;16.70;99.90;;;;;;5038134;28;20257;-82
2023/10/04 11:57:15;;;;;;;1.33;0.20;;;16.70;99.90;;;;;;5041638;28;20562;-82
2023/10/04 11:59:46;;;;;;;0.20;0.20;;;16.50;99.90;;;;;;5039718;28;20197;-83
2023/10/04 12:02:16;;;;;;;0.77;0.22;;;16.30;99.90;;;;;;5034034;28;20200;-83
2023/10/04 12:04:47;;;;;;;0.20;0.20;;;16.30;99.90;;;;;;5034513;28;20197;-82
2023/10/04 12:07:18;;;;;;;0.17;0.17;;;16.20;99.90;;;;;;5036786;28;20232;-83
2023/10/04 12:09:51;;;;;;;0.40;0.20;;;16.10;99.90;;;;;;5041745;28;20201;-82
2023/10/04 12:12:22;;;;;;;0.47;0.20;;;16.00;99.90;;;;;;5038377;28;20252;-83
2023/10/04 12:14:53;;;;;;;0.20;0.20;;;15.90;99.90;;;;;;5022087;28;20233;-82
2023/10/04 12:17:24;;;;;;;0.68;0.30;;;15.90;99.90;;;;;;5032527;28;20196;-83
2023/10/04 12:19:56;;;;;;;0.73;0.15;;;16.00;99.90;;;;;;5058262;28;20194;-83
2023/10/04 12:22:27;;;;;;;0.28;0.20;;;16.00;99.90;;;;;;5025112;28;20196;-82
2023/10/04 12:25:00;;;;;;;0.10;0.10;;;16.10;99.90;;;;;;5022445;28;20194;-84
2023/10/04 12:27:31;;;;;;;1.48;0.30;;;16.10;99.90;;;;;;5032195;28;20247;-82
2023/10/04 12:30:05;;;;;;;0.98;0.30;;;16.10;99.90;;;;;;5027104;28;20660;-83
2023/10/04 12:32:35;;;;;;;0.30;0.20;;;16.00;99.90;;;;;;5027871;28;20304;-81
2023/10/04 12:35:07;;;;;;;0.20;0.20;;;15.90;99.90;;;;;;5033127;28;20204;-81
2023/10/04 12:37:38;;;;;;;0.85;0.30;;;15.90;99.90;;;;;;5032178;28;20208;-82
2023/10/04 12:40:18;;;;;;;0.63;0.30;;;16.00;99.90;;;;;;5029926;28;20669;-83
2023/10/04 12:42:49;;;;;;;1.05;0.40;;;15.90;99.90;;;;;;5033182;28;20324;-81
2023/10/04 12:45:20;;;;;;;0.73;0.38;;;15.90;99.90;;;;;;5022024;28;20228;-84
2023/10/04 12:47:51;;;;;;;0.77;0.20;;;15.90;99.90;;;;;;5027376;28;20193;-82
2023/10/04 12:50:24;;;;;;;0.85;0.40;;;15.80;99.90;;;;;;5031140;28;20212;-82
2023/10/04 12:52:56;;;;;;;0.90;0.30;;;15.80;99.90;;;;;;5027184;28;20970;-83
2023/10/04 12:55:31;;;;;;;0.55;0.30;;;15.70;99.90;;;;;;5025812;28;20668;-82
2023/10/04 12:58:03;;;;;;;1.02;0.30;;;15.80;99.90;;;;;;5026349;28;20192;-83
2023/10/04 13:00:34;;;;;;;0.40;0.30;;;15.80;99.90;;;;;;5023851;28;20244;-83
2023/10/04 13:03:14;;;;;;;0.85;0.45;;;15.90;99.90;;;;;;5025004;28;20244;-82
2023/10/04 13:05:54;;;;;;;0.40;0.30;;;15.90;99.90;;;;;;5030082;28;20744;-84
2023/10/04 13:08:29;;;;;;;0.57;0.32;;;16.00;99.90;;;;;;5025312;28;20197;-84
2023/10/04 13:11:07;;;;;;;0.80;0.40;;;16.00;99.90;;;;;;5034618;28;20193;-83
2023/10/04 13:13:41;;;;;;;0.70;0.38;;;16.10;99.90;;;;;;5023258;28;20239;-83
2023/10/04 13:16:13;;;;;;;0.43;0.30;;;16.00;99.90;;;;;;5021287;28;20197;-83
2023/10/04 13:18:48;;;;;;;1.45;0.45;;;16.10;99.90;;;;;;5013782;28;20197;-84
2023/10/04 13:21:23;;;;;;;1.17;0.50;;;16.10;99.90;;;;;;5044245;28;20197;-82
2023/10/04 13:24:06;;;;;;;0.80;0.32;;;16.10;99.90;;;;;;5027394;28;20729;-82
2023/10/04 13:26:39;;;;;;;0.50;0.30;;;16.20;99.90;;;;;;5028277;28;20236;-82
2023/10/04 13:29:14;;;;;;;0.50;0.38;;;16.10;99.90;;;;;;5011638;28;20248;-83
2023/10/04 13:31:48;;;;;;;0.77;0.40;;;16.00;99.90;;;;;;5015667;28;20584;-82
2023/10/04 13:34:19;;;;;;;0.93;0.35;;;16.00;99.90;;;;;;5018084;28;20228;-83
2023/10/04 13:36:51;;;;;;;0.43;0.40;;;16.00;99.90;;;;;;5029592;28;20247;-81